Menu Horizontal
luftaufnahme
Willkommen auf der Webseite der privaten Wetterstation -- Taufkirchen an der Pram -- 48°24'29,52" Nord  <>  13°32'13,20" Ost

Wetterdaten - Sonntag, 16.05.2021 - Taufkirchen an der Pram     336 m über NN
Wetterdaten: aktuell Sonntag, 16.05.2021 17:10
Datum Zeit Temp. A. Feuchte A. Luftdruck Regen Wind Sonnenschein UV Solar Windchill Empfang
16.05.2021 17:10 19,7 °C 49 % 1004,7 hPa 0,0 l/m² 1,1 km/h 10 min 1,3 UV-I 203 W/m² 19,7 °C 100 %
16.05.2021 17:00 20,2 °C 47 % 1004,5 hPa 0,0 l/m² 1,9 km/h 10 min 1,8 UV-I 297 W/m² 20,2 °C 100 %
16.05.2021 16:50 20,2 °C 50 % 1004,4 hPa 0,0 l/m² 1,4 km/h 10 min 2,3 UV-I 423 W/m² 20,2 °C 100 %
16.05.2021 16:40 20,3 °C 50 % 1004,4 hPa 0,0 l/m² 1,2 km/h 10 min 2,5 UV-I 432 W/m² 20,3 °C 100 %
16.05.2021 16:30 20,2 °C 50 % 1004,7 hPa 0,0 l/m² 0,4 km/h 10 min 2,4 UV-I 359 W/m² 20,2 °C 100 %
16.05.2021 16:20 20,1 °C 49 % 1004,9 hPa 0,0 l/m² 2,8 km/h 10 min 3,1 UV-I 517 W/m² 20,1 °C 100 %
16.05.2021 16:10 20,2 °C 51 % 1004,8 hPa 0,0 l/m² 1,3 km/h 10 min 3,1 UV-I 432 W/m² 20,2 °C 100 %
16.05.2021 16:00 20,1 °C 48 % 1004,9 hPa 0,0 l/m² 2,2 km/h 10 min 2,8 UV-I 402 W/m² 20,1 °C 100 %
16.05.2021 15:50 20,1 °C 47 % 1005,3 hPa 0,0 l/m² 0,9 km/h 10 min 3,4 UV-I 479 W/m² 20,1 °C 100 %
16.05.2021 15:40 20,1 °C 52 % 1005,5 hPa 0,0 l/m² 0,6 km/h 10 min 3,6 UV-I 508 W/m² 20,1 °C 100 %
16.05.2021 15:30 19,9 °C 48 % 1005,6 hPa 0,0 l/m² 0,9 km/h 10 min 4,8 UV-I 729 W/m² 19,9 °C 100 %
16.05.2021 15:20 19,5 °C 49 % 1005,8 hPa 0,0 l/m² 1,2 km/h 10 min 5,4 UV-I 790 W/m² 19,5 °C 100 %
16.05.2021 15:10 19,0 °C 52 % 1005,9 hPa 0,0 l/m² 0,8 km/h 10 min 4,6 UV-I 551 W/m² 19,0 °C 100 %
16.05.2021 15:00 18,9 °C 52 % 1005,9 hPa 0,0 l/m² 1,4 km/h 10 min 5,6 UV-I 817 W/m² 18,9 °C 100 %
16.05.2021 14:50 18,5 °C 57 % 1006,1 hPa 0,0 l/m² 1,2 km/h 10 min 4,1 UV-I 394 W/m² 18,5 °C 100 %
16.05.2021 14:40 18,4 °C 56 % 1006,4 hPa 0,0 l/m² 1,2 km/h 10 min 5,8 UV-I 950 W/m² 18,4 °C 100 %
16.05.2021 14:30 18,0 °C 58 % 1006,6 hPa 0,0 l/m² 0,2 km/h 10 min 4,0 UV-I 393 W/m² 18,0 °C 100 %
16.05.2021 14:20 17,9 °C 59 % 1006,7 hPa 0,0 l/m² 0,5 km/h 10 min 5,0 UV-I 523 W/m² 17,9 °C 99 %
16.05.2021 14:10 18,2 °C 60 % 1006,9 hPa 0,0 l/m² 2,1 km/h 10 min 5,9 UV-I 755 W/m² 18,2 °C 100 %
16.05.2021 14:00 18,3 °C 56 % 1007,0 hPa 0,0 l/m² 0,9 km/h 9 min 6,8 UV-I 835 W/m² 18,3 °C 100 %
16.05.2021 13:51 17,7 °C 59 % 1007,0 hPa 0,0 l/m² 0,6 km/h 21 min 5,0 UV-I 470 W/m² 17,7 °C 100 %
16.05.2021 13:30 17,0 °C 59 % 1007,5 hPa 0,0 l/m² 1,5 km/h 10 min 5,5 UV-I 672 W/m² 17,0 °C 100 %
16.05.2021 13:20 17,5 °C 60 % 1007,6 hPa 0,0 l/m² 0,4 km/h 10 min 7,2 UV-I 849 W/m² 17,5 °C 100 %
16.05.2021 13:10 16,9 °C 60 % 1007,7 hPa 0,0 l/m² 0,6 km/h 10 min 5,1 UV-I 441 W/m² 16,9 °C 100 %
16.05.2021 13:00 17,1 °C 62 % 1007,8 hPa 0,0 l/m² 0,5 km/h 10 min 2,6 UV-I 201 W/m² 17,1 °C 100 %
16.05.2021 12:50 17,3 °C 58 % 1008,0 hPa 0,0 l/m² 1,1 km/h 10 min 4,1 UV-I 344 W/m² 17,3 °C 100 %
16.05.2021 12:40 17,3 °C 62 % 1008,1 hPa 0,0 l/m² 2,4 km/h 10 min 6,0 UV-I 808 W/m² 17,3 °C 100 %
16.05.2021 12:30 16,8 °C 64 % 1008,3 hPa 0,0 l/m² 1,2 km/h 10 min 6,0 UV-I 835 W/m² 16,8 °C 100 %
16.05.2021 12:20 15,9 °C 67 % 1008,5 hPa 0,0 l/m² 1,1 km/h 10 min 6,3 UV-I 726 W/m² 15,9 °C 100 %
16.05.2021 12:10 14,9 °C 68 % 1008,5 hPa 0,0 l/m² 2,0 km/h 10 min 6,5 UV-I 761 W/m² 14,9 °C 100 %
16.05.2021 12:00 13,7 °C 72 % 1008,6 hPa 0,0 l/m² 0,9 km/h 10 min 4,7 UV-I 514 W/m² 13,7 °C 100 %
16.05.2021 11:50 13,7 °C 70 % 1008,7 hPa 0,0 l/m² 1,0 km/h 10 min 1,9 UV-I 199 W/m² 13,7 °C 100 %
16.05.2021 11:40 13,9 °C 70 % 1008,7 hPa 0,0 l/m² 0,7 km/h 10 min 1,9 UV-I 200 W/m² 13,9 °C 100 %
16.05.2021 11:30 14,1 °C 69 % 1008,7 hPa 0,0 l/m² 0,8 km/h 10 min 1,7 UV-I 179 W/m² 14,1 °C 100 %
16.05.2021 11:20 14,5 °C 71 % 1008,6 hPa 0,0 l/m² 1,9 km/h 10 min 2,1 UV-I 241 W/m² 14,5 °C 100 %
16.05.2021 11:10 14,6 °C 71 % 1008,7 hPa 0,0 l/m² 0,4 km/h 10 min 3,9 UV-I 534 W/m² 14,6 °C 100 %
16.05.2021 11:00 14,2 °C 72 % 1008,7 hPa 0,0 l/m² 2,2 km/h 10 min 4,6 UV-I 686 W/m² 14,2 °C 100 %
16.05.2021 10:50 13,5 °C 76 % 1008,6 hPa 0,0 l/m² 0,5 km/h 10 min 4,3 UV-I 514 W/m² 13,5 °C 100 %
16.05.2021 10:40 13,2 °C 77 % 1008,7 hPa 0,0 l/m² 0,9 km/h 10 min 4,0 UV-I 403 W/m² 13,2 °C 100 %
16.05.2021 10:30 12,6 °C 79 % 1008,7 hPa 0,0 l/m² 1,0 km/h 10 min 3,1 UV-I 385 W/m² 12,6 °C 100 %
16.05.2021 10:20 12,3 °C 80 % 1008,7 hPa 0,0 l/m² 0,3 km/h 10 min 2,6 UV-I 319 W/m² 12,3 °C 100 %
16.05.2021 10:10 11,9 °C 84 % 1008,8 hPa 0,0 l/m² 1,1 km/h 10 min 3,4 UV-I 507 W/m² 11,9 °C 100 %
16.05.2021 10:00 11,1 °C 85 % 1008,8 hPa 0,0 l/m² 0,0 km/h 10 min 2,3 UV-I 301 W/m² 11,1 °C 100 %
16.05.2021 09:50 10,9 °C 85 % 1009,0 hPa 0,0 l/m² 0,0 km/h 10 min 1,1 UV-I 128 W/m² 10,9 °C 99 %
16.05.2021 09:40 10,9 °C 85 % 1009,0 hPa 0,0 l/m² 0,2 km/h 0 min 0,8 UV-I 88 W/m² 10,9 °C 100 %
16.05.2021 09:30 10,9 °C 85 % 1009,0 hPa 0,0 l/m² 0,3 km/h 0 min 0,8 UV-I 99 W/m² 10,9 °C 100 %
16.05.2021 09:20 10,9 °C 85 % 1009,0 hPa 0,0 l/m² 0,1 km/h 9 min 0,8 UV-I 102 W/m² 10,9 °C 100 %
16.05.2021 09:11 10,8 °C 86 % 1009,0 hPa 0,0 l/m² 0,0 km/h 21 min 1,0 UV-I 134 W/m² 10,8 °C 100 %
16.05.2021 08:50 10,4 °C 88 % 1009,0 hPa 0,0 l/m² 0,0 km/h 10 min 1,3 UV-I 201 W/m² 10,4 °C 100 %
16.05.2021 08:40 10,3 °C 89 % 1009,0 hPa 0,0 l/m² 0,0 km/h 10 min 0,9 UV-I 131 W/m² 10,3 °C 99 %
16.05.2021 08:30 9,9 °C 90 % 1009,0 hPa 0,0 l/m² 0,0 km/h 10 min 0,8 UV-I 128 W/m² 9,9 °C 100 %
16.05.2021 08:20 9,7 °C 92 % 1009,0 hPa 0,0 l/m² 0,0 km/h 10 min 1,0 UV-I 167 W/m² 9,7 °C 100 %
16.05.2021 08:10 9,6 °C 92 % 1008,9 hPa 0,0 l/m² 0,0 km/h 10 min 1,0 UV-I 170 W/m² 9,6 °C 99 %
16.05.2021 08:00 9,3 °C 92 % 1008,9 hPa 0,0 l/m² 0,0 km/h 10 min 0,8 UV-I 111 W/m² 9,3 °C 100 %
16.05.2021 07:50 9,2 °C 92 % 1009,0 hPa 0,0 l/m² 0,0 km/h 0 min 0,6 UV-I 91 W/m² 9,2 °C 100 %
16.05.2021 07:40 9,1 °C 93 % 1009,0 hPa 0,0 l/m² 0,0 km/h 0 min 0,3 UV-I 65 W/m² 9,1 °C 99 %
16.05.2021 07:30 9,1 °C 93 % 1009,0 hPa 0,0 l/m² 0,0 km/h 0 min 0,1 UV-I 58 W/m² 9,1 °C 100 %
16.05.2021 07:20 9,1 °C 93 % 1009,0 hPa 0,0 l/m² 0,0 km/h 0 min 0,5 UV-I 98 W/m² 9,1 °C 100 %
16.05.2021 07:10 9,0 °C 93 % 1009,1 hPa 0,0 l/m² 0,0 km/h 0 min 0,5 UV-I 81 W/m² 9,0 °C 100 %
16.05.2021 07:00 8,9 °C 93 % 1009,1 hPa 0,0 l/m² 0,0 km/h 0 min 0,4 UV-I 63 W/m² 8,9 °C 100 %
16.05.2021 06:50 8,8 °C 93 % 1009,0 hPa 0,0 l/m² 0,0 km/h 0 min 0,0 UV-I 47 W/m² 8,8 °C 99 %
16.05.2021 06:40 8,7 °C 93 % 1009,0 hPa 0,0 l/m² 0,0 km/h 0 min 0,0 UV-I 45 W/m² 8,7 °C 99 %
16.05.2021 06:30 8,7 °C 93 % 1009,0 hPa 0,0 l/m² 0,0 km/h 0 min 0,0 UV-I 50 W/m² 8,7 °C 100 %
16.05.2021 06:20 8,7 °C 93 % 1009,0 hPa 0,0 l/m² 0,0 km/h 0 min 0,0 UV-I 34 W/m² 8,7 °C 100 %
16.05.2021 06:10 8,8 °C 93 % 1008,8 hPa 0,0 l/m² 0,0 km/h 0 min 0,0 UV-I 15 W/m² 8,8 °C 100 %
16.05.2021 06:00 8,8 °C 93 % 1008,8 hPa 0,0 l/m² 0,0 km/h 0 min 0,0 UV-I 11 W/m² 8,8 °C 99 %
16.05.2021 05:50 8,9 °C 93 % 1008,8 hPa 0,0 l/m² 0,0 km/h 0 min 0,0 UV-I 6 W/m² 8,9 °C 100 %
16.05.2021 05:40 8,9 °C 92 % 1008,8 hPa 0,0 l/m² 0,0 km/h 0 min 0,0 UV-I 0 W/m² 8,9 °C 100 %
16.05.2021 05:30 8,9 °C 92 % 1008,7 hPa 0,0 l/m² 0,0 km/h 0 min 0,0 UV-I 0 W/m² 8,9 °C 100 %
16.05.2021 05:20 8,9 °C 92 % 1008,7 hPa 0,0 l/m² 0,0 km/h 0 min 0,0 UV-I 0 W/m² 8,9 °C 100 %
16.05.2021 05:10 9,0 °C 92 % 1008,7 hPa 0,0 l/m² 0,0 km/h 0 min 0,0 UV-I 0 W/m² 9,0 °C 99 %
16.05.2021 05:00 9,0 °C 92 % 1008,7 hPa 0,0 l/m² 0,0 km/h 0 min 0,0 UV-I 0 W/m² 9,0 °C 100 %
16.05.2021 04:50 9,1 °C 91 % 1008,7 hPa 0,0 l/m² 0,0 km/h 0 min 0,0 UV-I 0 W/m² 9,1 °C 99 %
16.05.2021 04:40 9,2 °C 91 % 1008,7 hPa 0,0 l/m² 0,0 km/h 0 min 0,0 UV-I 0 W/m² 9,2 °C 100 %
16.05.2021 04:30 9,3 °C 91 % 1008,6 hPa 0,0 l/m² 0,0 km/h 0 min 0,0 UV-I 0 W/m² 9,3 °C 100 %
16.05.2021 04:20 9,4 °C 92 % 1008,6 hPa 0,0 l/m² 0,0 km/h 0 min 0,0 UV-I 0 W/m² 9,4 °C 100 %
16.05.2021 04:10 9,4 °C 91 % 1008,7 hPa 0,0 l/m² 0,5 km/h 0 min 0,0 UV-I 0 W/m² 9,4 °C 99 %
16.05.2021 04:00 9,4 °C 91 % 1008,5 hPa 0,0 l/m² 1,5 km/h 0 min 0,0 UV-I 0 W/m² 9,4 °C 100 %
16.05.2021 03:50 9,6 °C 92 % 1008,5 hPa 0,0 l/m² 0,7 km/h 0 min 0,0 UV-I 0 W/m² 9,6 °C 92 %
16.05.2021 03:40 9,7 °C 92 % 1008,5 hPa 0,0 l/m² 0,7 km/h 0 min 0,0 UV-I 0 W/m² 9,7 °C 100 %
16.05.2021 03:30 9,7 °C 92 % 1008,5 hPa 0,2 l/m² 0,1 km/h 0 min 0,0 UV-I 0 W/m² 9,7 °C 100 %
16.05.2021 03:20 9,7 °C 92 % 1008,3 hPa 0,0 l/m² 0,0 km/h 0 min 0,0 UV-I 0 W/m² 9,7 °C 99 %
16.05.2021 03:10 9,7 °C 92 % 1008,0 hPa 0,0 l/m² 0,0 km/h 0 min 0,0 UV-I 0 W/m² 9,7 °C 100 %
16.05.2021 03:00 9,7 °C 92 % 1008,0 hPa 0,0 l/m² 0,0 km/h 0 min 0,0 UV-I 0 W/m² 9,7 °C 100 %
16.05.2021 02:50 9,7 °C 92 % 1008,0 hPa 0,0 l/m² 0,8 km/h 0 min 0,0 UV-I 0 W/m² 9,7 °C 100 %
16.05.2021 02:40 9,8 °C 92 % 1008,1 hPa 0,0 l/m² 0,6 km/h 0 min 0,0 UV-I 0 W/m² 9,8 °C 100 %
16.05.2021 02:30 10,0 °C 93 % 1007,9 hPa 0,0 l/m² 0,5 km/h 0 min 0,0 UV-I 0 W/m² 10,0 °C 100 %
16.05.2021 02:20 10,2 °C 93 % 1007,9 hPa 0,0 l/m² 0,2 km/h 0 min 0,0 UV-I 0 W/m² 10,2 °C 99 %
16.05.2021 02:10 10,2 °C 93 % 1007,9 hPa 0,0 l/m² 0,0 km/h 0 min 0,0 UV-I 0 W/m² 10,2 °C 91 %
16.05.2021 02:00 10,3 °C 93 % 1007,9 hPa 0,0 l/m² 0,0 km/h 0 min 0,0 UV-I 0 W/m² 10,3 °C 100 %
16.05.2021 01:50 10,3 °C 93 % 1007,9 hPa 0,0 l/m² 0,0 km/h 0 min 0,0 UV-I 0 W/m² 10,3 °C 100 %
16.05.2021 01:40 10,3 °C 92 % 1007,8 hPa 0,0 l/m² 0,0 km/h 0 min 0,0 UV-I 0 W/m² 10,3 °C 99 %
16.05.2021 01:30 10,3 °C 92 % 1007,8 hPa 0,0 l/m² 0,0 km/h 0 min 0,0 UV-I 0 W/m² 10,3 °C 100 %
16.05.2021 01:20 10,4 °C 92 % 1007,7 hPa 0,0 l/m² 0,0 km/h 0 min 0,0 UV-I 0 W/m² 10,4 °C 100 %
16.05.2021 01:10 10,3 °C 92 % 1007,7 hPa 0,0 l/m² 0,0 km/h 0 min 0,0 UV-I 0 W/m² 10,3 °C 100 %
16.05.2021 01:00 10,3 °C 91 % 1007,6 hPa 0,2 l/m² 0,0 km/h 0 min 0,0 UV-I 0 W/m² 10,3 °C 100 %
16.05.2021 00:50 10,3 °C 91 % 1007,5 hPa 0,2 l/m² 0,0 km/h 0 min 0,0 UV-I 0 W/m² 10,3 °C 100 %
16.05.2021 00:40 10,3 °C 91 % 1007,4 hPa 0,2 l/m² 1,4 km/h 0 min 0,0 UV-I 0 W/m² 10,3 °C 100 %
16.05.2021 00:30 10,4 °C 90 % 1007,3 hPa 0,4 l/m² 1,0 km/h 0 min 0,0 UV-I 0 W/m² 10,4 °C 100 %
16.05.2021 00:20 10,5 °C 90 % 1007,6 hPa 0,4 l/m² 2,1 km/h 0 min 0,0 UV-I 0 W/m² 10,5 °C 100 %
16.05.2021 00:00 10,8 °C 88 % 1007,5 hPa 0,2 l/m² 6,6 km/h 0 min 0,0 UV-I 0 W/m² 10,7 °C 100 %
15.05.2021 23:50 11,0 °C 87 % 1007,5 hPa 0,2 l/m² 5,7 km/h 0 min 0,0 UV-I 0 W/m² 11,0 °C 100 %
15.05.2021 23:40 11,4 °C 86 % 1007,3 hPa 0,2 l/m² 9,6 km/h 0 min 0,0 UV-I 0 W/m² 9,4 °C 100 %
15.05.2021 23:30 12,3 °C 88 % 1007,1 hPa 0,2 l/m² 0,8 km/h 0 min 0,0 UV-I 0 W/m² 12,3 °C 99 %
15.05.2021 23:20 12,4 °C 87 % 1006,9 hPa 0,2 l/m² 0,2 km/h 0 min 0,0 UV-I 0 W/m² 12,4 °C 100 %
15.05.2021 23:10 12,6 °C 87 % 1006,8 hPa 0,0 l/m² 0,0 km/h 0 min 0,0 UV-I 0 W/m² 12,6 °C 100 %
15.05.2021 23:00 12,7 °C 87 % 1006,7 hPa 0,2 l/m² 0,0 km/h 0 min 0,0 UV-I 0 W/m² 12,7 °C 100 %
15.05.2021 22:50 12,8 °C 86 % 1006,5 hPa 0,0 l/m² 0,0 km/h 0 min 0,0 UV-I 0 W/m² 12,8 °C 100 %
15.05.2021 22:40 12,8 °C 85 % 1006,1 hPa 0,0 l/m² 0,0 km/h 0 min 0,0 UV-I 0 W/m² 12,8 °C 100 %
15.05.2021 22:30 13,1 °C 84 % 1006,0 hPa 0,0 l/m² 0,0 km/h 0 min 0,0 UV-I 0 W/m² 13,1 °C 100 %
15.05.2021 22:20 13,2 °C 83 % 1006,1 hPa 0,0 l/m² 0,0 km/h 0 min 0,0 UV-I 0 W/m² 13,2 °C 100 %
15.05.2021 22:10 13,2 °C 81 % 1006,0 hPa 0,0 l/m² 0,0 km/h 0 min 0,0 UV-I 0 W/m² 13,2 °C 100 %
15.05.2021 22:00 13,3 °C 81 % 1006,0 hPa 0,0 l/m² 0,0 km/h 0 min 0,0 UV-I 0 W/m² 13,3 °C 99 %
15.05.2021 21:50 13,3 °C 80 % 1005,8 hPa 0,0 l/m² 0,7 km/h 0 min 0,0 UV-I 0 W/m² 13,3 °C 100 %
15.05.2021 21:40 13,3 °C 81 % 1005,7 hPa 0,0 l/m² 1,2 km/h 0 min 0,0 UV-I 0 W/m² 13,3 °C 100 %
15.05.2021 21:30 13,5 °C 81 % 1005,5 hPa 0,0 l/m² 0,3 km/h 0 min 0,0 UV-I 0 W/m² 13,5 °C 100 %
15.05.2021 21:20 13,5 °C 79 % 1005,5 hPa 0,0 l/m² 0,8 km/h 0 min 0,0 UV-I 0 W/m² 13,5 °C 99 %
15.05.2021 21:10 13,8 °C 80 % 1005,4 hPa 0,0 l/m² 0,9 km/h 0 min 0,0 UV-I 0 W/m² 13,8 °C 100 %
15.05.2021 21:00 13,9 °C 80 % 1005,0 hPa 0,0 l/m² 0,2 km/h 0 min 0,0 UV-I 0 W/m² 13,9 °C 99 %
15.05.2021 20:50 14,2 °C 78 % 1005,1 hPa 0,0 l/m² 0,0 km/h 0 min 0,0 UV-I 0 W/m² 14,2 °C 100 %
15.05.2021 20:40 14,3 °C 77 % 1005,1 hPa 0,0 l/m² 0,0 km/h 0 min 0,0 UV-I 0 W/m² 14,3 °C 100 %
15.05.2021 20:30 14,5 °C 75 % 1005,2 hPa 0,0 l/m² 0,0 km/h 0 min 0,0 UV-I 1 W/m² 14,5 °C 100 %
15.05.2021 20:20 14,7 °C 73 % 1005,2 hPa 0,0 l/m² 0,0 km/h 0 min 0,0 UV-I 2 W/m² 14,7 °C 100 %
15.05.2021 20:10 14,8 °C 73 % 1005,3 hPa 0,0 l/m² 0,0 km/h 0 min 0,0 UV-I 3 W/m² 14,8 °C 100 %
15.05.2021 20:00 14,9 °C 71 % 1005,4 hPa 0,0 l/m² 0,0 km/h 0 min 0,0 UV-I 10 W/m² 14,9 °C 100 %
15.05.2021 19:50 14,9 °C 70 % 1005,4 hPa 0,0 l/m² 0,0 km/h 0 min 0,0 UV-I 22 W/m² 14,9 °C 98 %
15.05.2021 19:40 15,1 °C 71 % 1005,4 hPa 0,0 l/m² 0,0 km/h 0 min 0,0 UV-I 28 W/m² 15,1 °C 100 %
15.05.2021 19:30 15,1 °C 69 % 1005,4 hPa 0,0 l/m² 0,0 km/h 0 min 0,0 UV-I 31 W/m² 15,1 °C 100 %
15.05.2021 19:20 15,4 °C 69 % 1005,4 hPa 0,0 l/m² 0,0 km/h 0 min 0,0 UV-I 25 W/m² 15,4 °C 92 %
15.05.2021 19:10 15,5 °C 67 % 1005,3 hPa 0,0 l/m² 0,0 km/h 0 min 0,0 UV-I 41 W/m² 15,5 °C 100 %
15.05.2021 19:00 15,7 °C 66 % 1005,5 hPa 0,0 l/m² 0,0 km/h 0 min 0,0 UV-I 37 W/m² 15,7 °C 100 %
15.05.2021 18:50 15,8 °C 66 % 1005,6 hPa 0,0 l/m² 0,0 km/h 0 min 0,2 UV-I 65 W/m² 15,8 °C 99 %
15.05.2021 18:40 15,8 °C 63 % 1005,5 hPa 0,0 l/m² 0,2 km/h 0 min 0,5 UV-I 82 W/m² 15,8 °C 99 %
15.05.2021 18:30 15,9 °C 63 % 1005,6 hPa 0,0 l/m² 0,7 km/h 0 min 0,6 UV-I 96 W/m² 15,9 °C 99 %
15.05.2021 18:20 16,2 °C 64 % 1005,8 hPa 0,0 l/m² 0,3 km/h 10 min 0,6 UV-I 106 W/m² 16,2 °C 100 %
15.05.2021 18:10 16,3 °C 62 % 1005,9 hPa 0,0 l/m² 0,2 km/h 10 min 0,7 UV-I 125 W/m² 16,3 °C 100 %
15.05.2021 18:00 16,3 °C 61 % 1005,9 hPa 0,0 l/m² 0,0 km/h 10 min 0,9 UV-I 138 W/m² 16,3 °C 100 %
_ Min-Zeit 06:40 17:00 16:50 - 10:00 - - - 06:40 02:10
Minimum _ 8,7 °C 47 % 1004,4 hPa - 0,0 km/h - - - 8,7 °C 91 %
_ Max-Zeit 16:40 07:40 07:10 00:20 23:40 13:51 13:20 14:40 16:40 17:10
Maximum _ 20,3 °C 93 % 1009,1 hPa 0,4 l/m² 9,6 km/h
NW
21 min 7,2 UV-I 950 W/m² 20,3 °C 100 %
Durchschnitt _ 13,4 °C 77 % 1007,2 hPa #2,8 l/m² 0,6 km/h #9:00 h 3,1 UV-I 236 W/m² 13,3 °C 100 %